Terminal Aerodrome Forecast
Issued by NWS St Louis, MO

Home | Current Version | Previous Version | Text Only | Print | Product List | Glossary On
Versions: 1 2 3 4 5 6 7 8 9 10 11 12 13 14 15 16 17 18 19 20 21 22 23 24 25 26 27 28 29 30 31
000
FTUS43 KLSX 281400 AAB
TAFSTL
TAF AMD
KSTL 281456Z 2815/2918 15015G23KT P6SM SCT250
     FM290000 18015KT P6SM SCT060 BKN200
     FM290300 18015KT P6SM BKN040 WS018/23050KT
     FM290800 23015G21KT P6SM SCT030 BKN200
     FM291100 29018G28KT P6SM BKN020=

USA.gov is the U.S. government's official web portal to all federal, state and local government web resources and services.